Airport ICAO


14:37 UTC

11°C

Few clouds


An affordable passengers' Moving Map for your aircraft. Made for the iPad and the iPhone
More information here

LFPB Le Bourget


Paris FRANCE   VFR


METAR LFPB 241430Z AUTO VRB03KT 9999 FEW019 11/07 Q1012 NOSIG 0h07min

TAF LFPB 241100Z 2412/2512 26010KT 9999 BKN010 BECMG 2412/2414 SCT020 BKN050 PROB40 TEMPO 2501/2506 3000 -SHRA BKN010TCU PROB30 TEMPO 2510/2512 SCT015CB 3h37min





NOTAMS

OPEN